Carrick on Shannon, Ireland
Current Conditions -  °F | °C
As of 5:30 PM on Monday 22 Dec 2014 (Local Time) from EIKN Reporting Station
Light Rain Light Rain  
Wind Chill: 50°   Ceiling: 400
Heat Index: 50°   Visibility: 6mi
Dew Point: 50°   Wind: 22mph
Humidity: 100%   Direction: 240°WSW
Pressure: 29.74"   Gusts: 37mph
Location:  53.95°N, 8.1°W
Report Text: EIKN 221730Z 24019G32KT 9999 -RADZ BKN004 BKN008 10/10 Q1007 NOSIG
Loading
Personal Weather Stations






























Interactive Weather Map New forecast layout! Learn more

10-Day Weather Forecast

Advertisements
Track Severe Weather on mobile